createdAt,value
2023-05-22T00:00:21.118Z,63774.22
2023-05-22T00:01:25.004Z,63762.54
2023-05-22T00:02:27.277Z,63762.54
2023-05-22T00:03:29.799Z,63756.74
2023-05-22T00:04:32.003Z,63756.74
2023-05-22T00:05:34.080Z,63775.21
2023-05-22T00:06:36.343Z,63769.95
2023-05-22T00:07:39.371Z,63766.75
2023-05-22T00:08:41.586Z,63761.56
2023-05-22T00:09:43.487Z,63769.13
2023-05-22T00:10:45.537Z,63768.59
2023-05-22T00:11:47.501Z,63758.16
2023-05-22T00:12:49.446Z,63735.31
2023-05-22T00:13:51.389Z,63737.52
2023-05-22T00:14:53.512Z,63738.82
2023-05-22T00:15:55.508Z,63726.97
2023-05-22T00:16:57.584Z,63733.56
2023-05-22T00:18:00.037Z,63713.36
2023-05-22T00:19:02.083Z,63717.75
2023-05-22T00:20:05.977Z,63706.21
2023-05-22T00:21:09.146Z,63703.79
2023-05-22T00:22:11.590Z,63695.68
2023-05-22T00:23:15.599Z,63690.07
2023-05-22T00:24:17.709Z,63684.59
2023-05-22T00:25:19.725Z,63692.39
2023-05-22T00:26:21.908Z,63696.22
2023-05-22T00:27:23.860Z,63682.62
2023-05-22T00:28:26.771Z,63691.84
2023-05-22T00:29:28.812Z,63698.41
2023-05-22T00:30:31.536Z,63705.44
2023-05-22T00:31:33.500Z,63701.29
2023-05-22T00:32:35.547Z,63705.44
2023-05-22T00:33:37.654Z,63720.15
2023-05-22T00:34:40.109Z,63700.18
2023-05-22T00:35:42.275Z,63709.51
2023-05-22T00:36:44.432Z,63723.57
2023-05-22T00:37:46.521Z,63721.04
2023-05-22T00:38:48.783Z,63726.30
2023-05-22T00:39:50.826Z,63729.28
2023-05-22T00:40:52.858Z,63724.21
2023-05-22T00:41:54.758Z,63724.78
2023-05-22T00:42:56.809Z,63726.97
2023-05-22T00:43:59.746Z,63723.67
2023-05-22T00:45:01.664Z,63728.49
2023-05-22T00:46:03.930Z,63733.56
2023-05-22T00:47:05.997Z,63732.58
2023-05-22T00:48:08.642Z,63736.19
2023-05-22T00:49:11.049Z,63734.23
2023-05-22T00:50:13.171Z,63733.12
2023-05-22T00:51:16.035Z,63734.66
2023-05-22T00:52:19.001Z,63737.40
2023-05-22T00:53:23.553Z,63738.61
2023-05-22T00:54:25.768Z,63748.93
2023-05-22T00:55:27.866Z,63750.46
2023-05-22T00:56:30.163Z,63740.38
2023-05-22T00:57:34.394Z,63748.39
2023-05-22T00:58:36.419Z,63723.79
2023-05-22T00:59:38.646Z,63735.64
2023-05-22T01:00:41.351Z,63729.28
2023-05-22T01:01:43.529Z,63741.23
2023-05-22T01:02:45.912Z,63748.71
2023-05-22T01:03:49.940Z,63745.09
2023-05-22T01:04:52.833Z,63744.97
2023-05-22T01:05:55.298Z,63734.86
2023-05-22T01:06:57.574Z,63732.45
2023-05-22T01:07:59.795Z,63732.04
2023-05-22T01:09:02.193Z,63741.90
2023-05-22T01:10:05.691Z,63740.82
2023-05-22T01:11:11.441Z,63744.66
2023-05-22T01:12:28.983Z,63745.09
2023-05-22T01:14:08.133Z,63747.95
2023-05-22T01:15:25.708Z,63749.92
2023-05-22T01:16:37.818Z,63757.18
2023-05-22T01:18:07.580Z,63749.37
2023-05-22T01:19:32.137Z,63749.48
2023-05-22T01:20:38.747Z,63747.83
2023-05-22T01:21:44.833Z,63743.45
2023-05-22T01:23:05.566Z,63744.43
2023-05-22T01:24:11.615Z,63741.80
2023-05-22T01:25:36.768Z,63732.14
2023-05-22T01:26:45.395Z,63732.04
2023-05-22T01:27:57.088Z,63745.76
2023-05-22T01:29:11.988Z,63746.74
2023-05-22T01:30:30.034Z,63708.30
2023-05-22T01:31:35.725Z,63733.02
2023-05-22T01:32:40.108Z,63718.73
2023-05-22T01:33:57.044Z,63732.04
2023-05-22T01:35:01.624Z,63732.89
2023-05-22T01:36:07.075Z,63733.66
2023-05-22T01:37:09.940Z,63733.56
2023-05-22T01:38:14.986Z,63732.04
2023-05-22T01:39:18.131Z,63729.28
2023-05-22T01:40:21.365Z,63739.48
2023-05-22T01:41:23.658Z,63737.30
2023-05-22T01:42:26.600Z,63730.80
2023-05-22T01:43:30.008Z,63726.30
2023-05-22T01:44:32.003Z,63723.00
2023-05-22T01:45:34.002Z,63726.84
2023-05-22T01:46:36.203Z,63723.57
2023-05-22T01:47:38.261Z,63695.01
2023-05-22T01:48:40.327Z,63718.62
2023-05-22T01:49:43.384Z,63734.00
2023-05-22T01:50:49.314Z,63733.33
2023-05-22T01:53:30.024Z,63737.30
2023-05-22T01:55:07.695Z,63730.14
2023-05-22T01:56:13.754Z,63703.36
2023-05-22T01:57:22.436Z,63715.33
2023-05-22T01:58:44.984Z,63698.98
2023-05-22T02:00:02.956Z,63705.44
2023-05-22T02:01:08.279Z,63710.93
2023-05-22T02:02:14.313Z,63713.12
2023-05-22T02:03:20.683Z,63719.29
2023-05-22T02:04:23.355Z,63702.94
2023-05-22T02:05:28.030Z,63706.65
2023-05-22T02:06:32.554Z,63713.12
2023-05-22T02:07:38.215Z,63704.34
2023-05-22T02:08:42.262Z,63721.92
2023-05-22T02:09:46.990Z,63719.83
2023-05-22T02:10:51.499Z,63711.59
2023-05-22T02:11:53.520Z,63718.18
2023-05-22T02:12:56.334Z,63719.83
2023-05-22T02:13:58.234Z,63724.11
2023-05-22T02:15:00.718Z,63700.06
2023-05-22T02:16:04.418Z,63713.36
2023-05-22T02:17:06.527Z,63734.41
2023-05-22T02:18:11.583Z,63684.15
2023-05-22T02:19:14.209Z,63689.63
2023-05-22T02:20:18.488Z,63692.93
2023-05-22T02:21:22.736Z,63680.31
2023-05-22T02:22:24.753Z,63695.12
2023-05-22T02:23:27.105Z,63669.22
2023-05-22T02:24:32.139Z,63665.61
2023-05-22T02:25:34.166Z,63667.03
2023-05-22T02:26:36.504Z,63649.68
2023-05-22T02:27:38.477Z,63657.38
2023-05-22T02:28:40.468Z,63654.08
2023-05-22T02:29:42.347Z,63647.27
2023-05-22T02:30:44.526Z,63637.38
2023-05-22T02:31:46.489Z,63641.79
2023-05-22T02:32:48.600Z,63650.79
2023-05-22T02:33:50.556Z,63650.25
2023-05-22T02:34:54.657Z,63654.52
2023-05-22T02:35:56.454Z,63663.84
2023-05-22T02:36:59.740Z,63684.02
2023-05-22T02:38:01.795Z,63667.80
2023-05-22T02:39:04.764Z,63691.18
2023-05-22T02:40:09.625Z,63696.89
2023-05-22T02:41:12.894Z,63710.61
2023-05-22T02:42:15.254Z,63706.21
2023-05-22T02:43:17.259Z,63711.05
2023-05-22T02:44:19.241Z,63715.99
2023-05-22T02:45:21.637Z,63696.77
2023-05-22T02:46:23.684Z,63709.51
2023-05-22T02:47:25.741Z,63709.84
2023-05-22T02:48:27.718Z,63724.65
2023-05-22T02:49:29.606Z,63728.49
2023-05-22T02:50:31.792Z,63726.53
2023-05-22T02:51:33.791Z,63740.15
2023-05-22T02:52:35.846Z,63730.93
2023-05-22T02:53:37.846Z,63741.68
2023-05-22T02:54:40.053Z,63737.52
2023-05-22T02:55:42.843Z,63733.12
2023-05-22T02:56:44.943Z,63741.45
2023-05-22T02:57:47.167Z,63745.52
2023-05-22T02:58:49.219Z,63757.59
2023-05-22T02:59:51.373Z,63742.46
2023-05-22T03:00:53.875Z,63760.57
2023-05-22T03:01:55.978Z,63762.66
2023-05-22T03:02:58.058Z,63770.49
2023-05-22T03:04:00.199Z,63777.08
2023-05-22T03:05:02.503Z,63762.66
2023-05-22T03:06:04.995Z,63774.22
2023-05-22T03:07:07.266Z,63768.96
2023-05-22T03:08:09.346Z,63759.68
2023-05-22T03:09:11.667Z,63771.03
2023-05-22T03:10:14.074Z,63779.27
2023-05-22T03:11:15.979Z,63786.85
2023-05-22T03:12:17.887Z,63791.13
2023-05-22T03:13:20.473Z,63799.60
2023-05-22T03:14:22.373Z,63791.80
2023-05-22T03:15:24.366Z,63796.62
2023-05-22T03:16:26.472Z,63801.69
2023-05-22T03:17:28.475Z,63805.85
2023-05-22T03:18:30.551Z,63819.27
2023-05-22T03:19:33.017Z,63801.13
2023-05-22T03:20:35.184Z,63785.87
2023-05-22T03:21:37.841Z,63798.62
2023-05-22T03:22:39.908Z,63797.73
2023-05-22T03:23:44.302Z,63785.87
2023-05-22T03:24:46.242Z,63802.36
2023-05-22T03:25:48.395Z,63810.90
2023-05-22T03:26:50.723Z,63817.62
2023-05-22T03:27:54.057Z,63831.36
2023-05-22T03:28:57.046Z,63837.51
2023-05-22T03:29:59.140Z,63839.16
2023-05-22T03:31:03.561Z,63854.87
2023-05-22T03:32:05.839Z,63870.80
2023-05-22T03:33:07.859Z,63870.80
2023-05-22T03:34:10.043Z,63863.89
2023-05-22T03:35:12.285Z,63889.94
2023-05-22T03:36:15.149Z,63886.32
2023-05-22T03:37:17.067Z,63888.52
2023-05-22T03:38:19.072Z,63880.16
2023-05-22T03:39:20.964Z,63875.43
2023-05-22T03:40:23.103Z,63874.33
2023-05-22T03:41:25.133Z,63894.01
2023-05-22T03:42:27.374Z,63883.68
2023-05-22T03:43:29.393Z,63916.99
2023-05-22T03:44:33.349Z,63909.85
2023-05-22T03:45:35.313Z,63914.48
2023-05-22T03:46:37.599Z,63899.30
2023-05-22T03:47:39.953Z,63920.41
2023-05-22T03:48:42.716Z,63906.22
2023-05-22T03:49:44.602Z,63927.14
2023-05-22T03:50:46.732Z,63935.17
2023-05-22T03:51:48.658Z,63936.92
2023-05-22T03:52:50.678Z,63932.09
2023-05-22T03:53:52.716Z,63950.79
2023-05-22T03:54:54.688Z,63947.49
2023-05-22T03:55:56.686Z,63930.98
2023-05-22T03:56:58.764Z,63966.32
2023-05-22T03:58:00.681Z,63976.11
2023-05-22T03:59:02.673Z,63989.86
2023-05-22T04:00:06.184Z,63997.55
2023-05-22T04:01:08.205Z,64005.15
2023-05-22T04:02:10.234Z,64015.94
2023-05-22T04:03:12.421Z,64011.53
2023-05-22T04:04:14.857Z,64026.72
2023-05-22T04:05:17.004Z,64019.03
2023-05-22T04:06:19.072Z,64037.08
2023-05-22T04:07:21.241Z,64038.83
2023-05-22T04:08:23.671Z,64035.53
2023-05-22T04:09:26.892Z,64048.20
2023-05-22T04:10:28.914Z,64070.13
2023-05-22T04:11:30.785Z,64105.04
2023-05-22T04:12:32.885Z,64136.99
2023-05-22T04:13:34.862Z,64171.93
2023-05-22T04:14:36.840Z,64187.60
2023-05-22T04:15:38.743Z,64196.96
2023-05-22T04:16:40.785Z,64187.15
2023-05-22T04:17:42.676Z,64187.15
2023-05-22T04:18:44.881Z,64216.70
2023-05-22T04:19:46.879Z,64189.80
2023-05-22T04:20:48.952Z,64244.92
2023-05-22T04:21:50.820Z,64254.40
2023-05-22T04:22:52.955Z,64253.20
2023-05-22T04:23:54.954Z,64238.30
2023-05-22T04:24:56.974Z,64260.48
2023-05-22T04:25:58.852Z,64290.80
2023-05-22T04:27:00.959Z,64238.30
2023-05-22T04:28:03.077Z,64281.88
2023-05-22T04:29:05.307Z,64297.76
2023-05-22T04:30:10.111Z,64309.57
2023-05-22T04:31:13.035Z,64312.44
2023-05-22T04:32:15.840Z,64290.80
2023-05-22T04:33:17.715Z,64334.30
2023-05-22T04:34:19.722Z,64305.18
2023-05-22T04:35:21.594Z,64305.18
2023-05-22T04:36:23.588Z,64327.58
2023-05-22T04:37:25.463Z,64320.62
2023-05-22T04:38:28.595Z,64369.93
2023-05-22T04:39:30.477Z,64360.78
2023-05-22T04:40:32.520Z,64337.07
2023-05-22T04:41:34.473Z,64375.35
2023-05-22T04:42:37.815Z,64378.66
2023-05-22T04:43:39.924Z,64414.35
2023-05-22T04:44:41.928Z,64417.32
2023-05-22T04:45:44.063Z,64437.00
2023-05-22T04:46:46.148Z,64454.76
2023-05-22T04:47:48.178Z,64467.02
2023-05-22T04:48:50.178Z,64478.52
2023-05-22T04:49:52.207Z,64477.86
2023-05-22T04:50:54.234Z,64492.24
2023-05-22T04:51:56.121Z,64495.19
2023-05-22T04:52:58.713Z,64424.60
2023-05-22T04:54:00.647Z,64427.81
2023-05-22T04:55:05.945Z,64430.37
2023-05-22T04:56:08.315Z,64444.27
2023-05-22T04:57:10.351Z,64511.13
2023-05-22T04:58:12.236Z,64521.09
2023-05-22T04:59:14.247Z,64555.44
2023-05-22T05:00:17.661Z,64551.47
2023-05-22T05:01:19.687Z,64592.93
2023-05-22T05:02:21.766Z,64589.17
2023-05-22T05:03:24.711Z,64610.09
2023-05-22T05:04:26.689Z,64615.07
2023-05-22T05:05:28.824Z,64632.87
2023-05-22T05:06:30.858Z,64602.99
2023-05-22T05:07:38.301Z,64618.50
2023-05-22T05:08:40.326Z,64641.06
2023-05-22T05:09:42.211Z,64610.09
2023-05-22T05:10:44.176Z,64636.73
2023-05-22T05:11:46.063Z,64622.91
2023-05-22T05:12:48.104Z,64665.31
2023-05-22T05:13:50.022Z,64636.64
2023-05-22T05:14:52.068Z,64596.36
2023-05-22T05:15:54.394Z,64649.82
2023-05-22T05:16:56.596Z,64680.99
2023-05-22T05:17:58.765Z,64699.28
2023-05-22T05:19:00.991Z,64715.87
2023-05-22T05:20:04.333Z,64730.25
2023-05-22T05:21:06.248Z,64741.23
2023-05-22T05:22:08.240Z,64669.83
2023-05-22T05:23:10.286Z,64676.66
2023-05-22T05:24:12.354Z,64595.70
2023-05-22T05:25:14.397Z,64622.82
2023-05-22T05:26:16.925Z,64658.31
2023-05-22T05:27:18.838Z,64664.30
2023-05-22T05:28:20.958Z,64695.73
2023-05-22T05:29:23.233Z,64634.63
2023-05-22T05:30:25.233Z,64686.87
2023-05-22T05:31:27.220Z,64698.71
2023-05-22T05:32:29.857Z,64705.25
2023-05-22T05:33:32.259Z,64663.84
2023-05-22T05:34:35.367Z,64709.33
2023-05-22T05:35:37.318Z,64731.47
2023-05-22T05:36:39.643Z,64764.03
2023-05-22T05:37:41.557Z,64789.86
2023-05-22T05:38:43.625Z,64770.67
2023-05-22T05:39:45.553Z,64735.80
2023-05-22T05:40:48.461Z,64786.85
2023-05-22T05:41:50.373Z,64792.93
2023-05-22T05:42:52.271Z,64788.51
2023-05-22T05:43:54.259Z,64826.61
2023-05-22T05:44:56.176Z,64742.80
2023-05-22T05:45:58.108Z,64773.43
2023-05-22T05:47:00.468Z,64801.13
2023-05-22T05:48:02.792Z,64817.21
2023-05-22T05:49:08.726Z,64828.46
2023-05-22T05:50:11.061Z,64814.53
2023-05-22T05:51:13.089Z,64809.36
2023-05-22T05:52:15.104Z,64698.04
2023-05-22T05:53:17.123Z,64762.36
2023-05-22T05:54:19.159Z,64782.96
2023-05-22T05:55:22.011Z,64725.84
2023-05-22T05:56:24.153Z,64766.15
2023-05-22T05:57:27.109Z,64764.13
2023-05-22T05:58:29.239Z,64776.66
2023-05-22T05:59:31.162Z,64690.85
2023-05-22T06:00:33.374Z,64738.55
2023-05-22T06:01:37.269Z,64738.01
2023-05-22T06:02:39.279Z,64752.39
2023-05-22T06:03:41.440Z,64811.11
2023-05-22T06:04:43.602Z,64829.39
2023-05-22T06:05:45.572Z,64766.80
2023-05-22T06:06:47.765Z,64769.47
2023-05-22T06:07:51.237Z,64840.46
2023-05-22T06:08:53.156Z,64873.06
2023-05-22T06:09:55.056Z,64842.69
2023-05-22T06:10:57.185Z,64866.96
2023-05-22T06:11:59.215Z,64798.37
2023-05-22T06:13:01.141Z,64769.01
2023-05-22T06:14:04.489Z,64785.63
2023-05-22T06:15:07.208Z,64740.68
2023-05-22T06:16:09.461Z,64780.07
2023-05-22T06:17:11.535Z,64741.33
2023-05-22T06:18:13.615Z,64747.79
2023-05-22T06:19:15.571Z,64747.32
2023-05-22T06:20:17.974Z,64775.00
2023-05-22T06:21:19.865Z,64798.46
2023-05-22T06:22:21.745Z,64789.52
2023-05-22T06:23:23.620Z,64760.51
2023-05-22T06:24:25.502Z,64811.11
2023-05-22T06:25:27.395Z,64782.30
2023-05-22T06:26:29.799Z,64757.29
2023-05-22T06:27:31.960Z,64819.31
2023-05-22T06:28:33.986Z,64780.54
2023-05-22T06:29:35.899Z,64772.34
2023-05-22T06:30:40.417Z,64833.26
2023-05-22T06:31:42.492Z,64855.42
2023-05-22T06:32:45.008Z,64853.21
2023-05-22T06:33:47.406Z,64885.92
2023-05-22T06:34:49.400Z,64919.07
2023-05-22T06:35:51.290Z,64939.21
2023-05-22T06:36:53.393Z,64940.23
2023-05-22T06:37:55.510Z,64940.23
2023-05-22T06:38:57.490Z,64944.29
2023-05-22T06:39:59.405Z,64955.20
2023-05-22T06:41:01.504Z,64965.84
2023-05-22T06:42:03.565Z,64960.74
2023-05-22T06:43:05.670Z,64918.52
2023-05-22T06:44:07.934Z,64919.17
2023-05-22T06:45:10.340Z,64902.90
2023-05-22T06:46:13.762Z,64919.17
2023-05-22T06:47:16.969Z,64893.21
2023-05-22T06:48:19.008Z,64854.96
2023-05-22T06:49:21.113Z,64876.94
2023-05-22T06:50:23.286Z,64903.08
2023-05-22T06:51:25.706Z,64886.47
2023-05-22T06:52:27.819Z,64838.25
2023-05-22T06:53:29.736Z,64859.40
2023-05-22T06:54:31.637Z,64909.92
2023-05-22T06:55:33.713Z,64942.36
2023-05-22T06:56:35.850Z,64978.96
2023-05-22T06:57:37.723Z,65002.35
2023-05-22T06:58:39.622Z,65025.45
2023-05-22T06:59:41.643Z,64997.72
2023-05-22T07:00:43.755Z,64982.95
2023-05-22T07:01:45.847Z,64994.03
2023-05-22T07:02:47.950Z,64990.15
2023-05-22T07:03:50.097Z,64960.74
2023-05-22T07:04:52.335Z,64903.55
2023-05-22T07:05:55.579Z,64889.80
2023-05-22T07:06:57.727Z,64851.91
2023-05-22T07:07:59.836Z,64910.85
2023-05-22T07:09:01.809Z,64920.37
2023-05-22T07:10:04.985Z,64925.25
2023-05-22T07:11:06.885Z,64942.98
2023-05-22T07:12:09.495Z,64958.98
2023-05-22T07:13:11.961Z,64973.50
2023-05-22T07:14:14.223Z,64954.73
2023-05-22T07:15:16.141Z,65004.09
2023-05-22T07:16:18.302Z,65003.83
2023-05-22T07:17:20.494Z,64999.02
2023-05-22T07:18:22.569Z,65039.05
2023-05-22T07:19:24.612Z,65042.85
2023-05-22T07:20:26.956Z,65057.91
2023-05-22T07:21:28.837Z,65055.70
2023-05-22T07:22:30.715Z,65050.80
2023-05-22T07:23:32.620Z,65067.44
2023-05-22T07:24:34.640Z,65032.29
2023-05-22T07:25:36.619Z,65003.08
2023-05-22T07:26:41.011Z,65022.40
2023-05-22T07:27:43.040Z,65032.39
2023-05-22T07:28:44.981Z,65065.05
2023-05-22T07:29:46.903Z,65062.83
2023-05-22T07:30:49.326Z,65073.27
2023-05-22T07:31:51.484Z,65083.44
2023-05-22T07:32:53.528Z,65104.53
2023-05-22T07:33:55.642Z,65097.79
2023-05-22T07:34:57.651Z,65069.02
2023-05-22T07:35:59.554Z,65039.50
2023-05-22T07:37:05.420Z,65066.16
2023-05-22T07:38:07.382Z,65051.27
2023-05-22T07:39:10.565Z,65076.70
2023-05-22T07:40:12.993Z,65045.16
2023-05-22T07:41:15.226Z,65022.22
2023-05-22T07:42:17.130Z,65048.39
2023-05-22T07:43:19.150Z,65055.70
2023-05-22T07:44:21.142Z,65060.60
2023-05-22T07:45:23.440Z,65060.60
2023-05-22T07:46:25.962Z,65080.11
2023-05-22T07:47:28.102Z,65071.71
2023-05-22T07:48:30.122Z,65080.21
2023-05-22T07:49:32.324Z,65042.85
2023-05-22T07:50:34.682Z,65031.09
2023-05-22T07:51:36.850Z,65032.84
2023-05-22T07:52:38.772Z,65071.79
2023-05-22T07:53:40.809Z,65056.17
2023-05-22T07:54:45.292Z,65077.80
2023-05-22T07:55:47.820Z,65073.82
2023-05-22T07:56:49.881Z,65052.84
2023-05-22T07:57:51.945Z,65050.62
2023-05-22T07:58:53.935Z,64953.15
2023-05-22T07:59:56.382Z,65011.12
2023-05-22T08:00:58.483Z,65033.49
2023-05-22T08:02:01.196Z,65056.17
2023-05-22T08:03:03.943Z,65058.38
2023-05-22T08:04:06.079Z,65015.56
2023-05-22T08:05:09.440Z,65015.74
2023-05-22T08:06:11.985Z,65020.64
2023-05-22T08:07:14.190Z,65041.29
2023-05-22T08:08:16.177Z,65047.95
2023-05-22T08:09:18.074Z,65067.83
2023-05-22T08:10:20.083Z,65081.30
2023-05-22T08:11:22.088Z,65091.67
2023-05-22T08:12:24.454Z,65043.60
2023-05-22T08:13:26.349Z,65060.23
2023-05-22T08:14:29.646Z,65046.73
2023-05-22T08:15:32.278Z,65036.17
2023-05-22T08:16:34.716Z,65015.09
2023-05-22T08:17:37.047Z,64984.04
2023-05-22T08:18:39.124Z,64969.08
2023-05-22T08:19:41.248Z,65002.89
2023-05-22T08:20:43.609Z,65007.89
2023-05-22T08:21:45.633Z,65043.40
2023-05-22T08:22:47.547Z,65014.18
2023-05-22T08:23:49.455Z,65036.74
2023-05-22T08:24:51.467Z,64997.82
2023-05-22T08:25:53.484Z,64986.82
2023-05-22T08:26:56.693Z,64974.25
2023-05-22T08:27:58.619Z,64977.95
2023-05-22T08:29:00.819Z,64949.46
2023-05-22T08:30:03.290Z,64974.05
2023-05-22T08:31:05.480Z,64950.94
2023-05-22T08:32:07.524Z,64939.03
2023-05-22T08:33:09.768Z,64938.56
2023-05-22T08:34:11.880Z,64924.16
2023-05-22T08:35:14.162Z,64955.00
2023-05-22T08:36:16.422Z,64925.36
2023-05-22T08:37:18.385Z,64899.21
2023-05-22T08:38:20.577Z,64919.17
2023-05-22T08:39:22.656Z,64977.95
2023-05-22T08:40:28.395Z,64999.57
2023-05-22T08:41:30.488Z,64975.64
2023-05-22T08:42:32.412Z,64970.18
2023-05-22T08:43:34.931Z,64984.51
2023-05-22T08:44:37.185Z,64981.28
2023-05-22T08:45:39.184Z,64974.25
2023-05-22T08:46:41.336Z,64950.86
2023-05-22T08:47:44.246Z,64933.21
2023-05-22T08:48:47.488Z,64940.77
2023-05-22T08:49:51.092Z,64981.46
2023-05-22T08:50:53.805Z,65010.67
2023-05-22T08:51:59.571Z,65053.39
2023-05-22T08:53:05.855Z,65066.81
2023-05-22T08:54:08.820Z,65091.12
2023-05-22T08:55:11.216Z,65089.09
2023-05-22T08:56:13.990Z,65103.98
2023-05-22T08:57:17.320Z,65074.57
2023-05-22T08:59:31.689Z,65071.88
2023-05-22T09:00:33.995Z,65092.79
2023-05-22T09:01:37.186Z,65112.78
2023-05-22T09:02:40.081Z,65106.11
2023-05-22T09:03:42.635Z,65097.24
2023-05-22T09:04:45.462Z,65084.64
2023-05-22T09:05:47.470Z,65107.86
2023-05-22T09:06:49.756Z,65096.67
2023-05-22T09:07:55.275Z,65116.19
2023-05-22T09:09:00.756Z,65072.80
2023-05-22T09:10:03.147Z,65033.96
2023-05-22T09:11:05.509Z,65040.62
2023-05-22T09:12:09.327Z,65064.50
2023-05-22T09:13:15.185Z,65066.16
2023-05-22T09:14:18.161Z,65077.25
2023-05-22T09:15:21.933Z,65033.96
2023-05-22T09:16:24.818Z,65006.12
2023-05-22T09:17:28.048Z,65006.12
2023-05-22T09:18:31.222Z,64980.16
2023-05-22T09:19:33.316Z,64938.02
2023-05-22T09:20:38.624Z,64985.16
2023-05-22T09:21:41.358Z,64976.94
2023-05-22T09:22:43.353Z,64978.50
2023-05-22T09:23:50.021Z,64956.77
2023-05-22T09:24:52.128Z,64938.02
2023-05-22T09:25:59.304Z,64991.81
2023-05-22T09:27:03.110Z,65017.96
2023-05-22T09:28:05.028Z,65022.87
2023-05-22T09:29:08.392Z,64997.43
2023-05-22T09:30:14.012Z,65017.31
2023-05-22T09:31:16.001Z,65021.86
2023-05-22T09:32:19.377Z,64974.70
2023-05-22T09:33:22.573Z,64980.26
2023-05-22T09:34:29.320Z,64940.77
2023-05-22T09:35:31.875Z,64891.54
2023-05-22T09:36:35.990Z,64893.67
2023-05-22T09:37:39.573Z,64897.55
2023-05-22T09:38:41.480Z,64916.86
2023-05-22T09:39:48.126Z,64929.13
2023-05-22T09:40:54.467Z,64907.52
2023-05-22T09:42:00.223Z,64889.23
2023-05-22T09:43:07.275Z,64911.40
2023-05-22T09:44:14.498Z,64939.76
2023-05-22T09:45:21.718Z,64959.18
2023-05-22T09:46:23.873Z,65003.54
2023-05-22T09:47:25.872Z,65018.61
2023-05-22T09:48:27.858Z,65025.08
2023-05-22T09:49:29.860Z,65049.51
2023-05-22T09:50:32.291Z,65048.39
2023-05-22T09:51:37.071Z,65037.29
2023-05-22T09:52:39.391Z,65016.86
2023-05-22T09:53:43.621Z,64986.82
2023-05-22T09:54:49.306Z,64981.28
2023-05-22T09:55:53.973Z,64978.50
2023-05-22T09:56:58.857Z,64968.33
2023-05-22T09:58:03.663Z,64957.62
2023-05-22T09:59:08.474Z,64966.30
2023-05-22T10:00:15.368Z,64972.96
2023-05-22T10:01:20.579Z,64982.95
2023-05-22T10:02:24.345Z,64984.41
2023-05-22T10:03:27.004Z,64911.50
2023-05-22T10:04:32.331Z,64907.52
2023-05-22T10:05:36.804Z,64953.54
2023-05-22T10:06:41.549Z,64966.40
2023-05-22T10:07:47.345Z,64966.40
2023-05-22T10:08:53.358Z,65023.79
2023-05-22T10:09:59.055Z,65034.05
2023-05-22T10:11:02.777Z,65046.73
2023-05-22T10:12:09.470Z,65057.27
2023-05-22T10:13:12.286Z,65079.64
2023-05-22T10:14:16.320Z,65048.96
2023-05-22T10:15:20.118Z,65066.24
2023-05-22T10:16:25.060Z,65063.01
2023-05-22T10:17:27.699Z,65075.12
2023-05-22T10:18:31.026Z,65090.57
2023-05-22T10:19:35.839Z,65079.46
2023-05-22T10:20:39.755Z,65055.23
2023-05-22T10:21:42.038Z,65028.41
2023-05-22T10:22:46.710Z,65018.43
2023-05-22T10:23:49.997Z,65041.09
2023-05-22T10:24:53.487Z,65053.39
2023-05-22T10:25:56.953Z,65025.27
2023-05-22T10:26:58.992Z,65045.06
2023-05-22T10:28:03.081Z,65053.02
2023-05-22T10:29:08.938Z,65070.04
2023-05-22T10:30:27.620Z,65073.45
2023-05-22T10:31:45.389Z,65071.24
2023-05-22T10:32:54.252Z,65078.91
2023-05-22T10:34:03.388Z,65066.16
2023-05-22T10:35:21.663Z,65057.84
2023-05-22T10:36:47.603Z,65065.14
2023-05-22T10:37:52.691Z,65056.35
2023-05-22T10:39:23.712Z,65066.81
2023-05-22T10:40:29.213Z,65025.63
2023-05-22T10:41:31.998Z,65069.49
2023-05-22T10:42:37.265Z,65081.70
2023-05-22T10:43:42.951Z,65041.83
2023-05-22T10:44:49.068Z,65023.05
2023-05-22T10:45:54.916Z,65024.54
2023-05-22T10:46:57.114Z,65002.43
2023-05-22T10:48:06.651Z,65030.55
2023-05-22T10:49:08.832Z,65037.93
2023-05-22T10:50:12.039Z,65044.61
2023-05-22T10:51:16.630Z,65010.67
2023-05-22T10:52:18.610Z,64974.62
2023-05-22T10:53:26.331Z,64917.50
2023-05-22T10:54:45.253Z,64923.23
2023-05-22T10:55:58.031Z,64959.99
2023-05-22T10:57:13.457Z,64950.21
2023-05-22T10:58:16.851Z,64937.45
2023-05-22T10:59:22.620Z,64941.89
2023-05-22T11:00:24.662Z,64943.19
2023-05-22T11:01:26.848Z,64977.38
2023-05-22T11:02:29.276Z,65011.12
2023-05-22T11:03:52.486Z,65015.64
2023-05-22T11:04:54.753Z,65007.89
2023-05-22T11:05:56.734Z,65022.40
2023-05-22T11:07:03.876Z,65042.38
2023-05-22T11:08:27.236Z,65038.40
2023-05-22T11:09:35.839Z,65046.18
2023-05-22T11:10:54.509Z,64993.56
2023-05-22T11:12:15.759Z,64972.96
2023-05-22T11:13:18.060Z,64981.28
2023-05-22T11:14:20.169Z,65037.29
2023-05-22T11:15:25.833Z,65051.72
2023-05-22T11:16:33.580Z,65043.97
2023-05-22T11:17:41.846Z,65033.96
2023-05-22T11:18:45.351Z,65038.95
2023-05-22T11:21:02.331Z,65065.05
2023-05-22T11:22:04.683Z,65051.72
2023-05-22T11:23:07.523Z,65069.39
2023-05-22T11:24:10.270Z,65013.98
2023-05-22T11:25:16.935Z,65009.09
2023-05-22T11:26:21.026Z,64997.36
2023-05-22T11:27:23.817Z,64958.98
2023-05-22T11:28:26.722Z,64973.50
2023-05-22T11:29:29.956Z,64971.84
2023-05-22T11:30:34.091Z,64983.57
2023-05-22T11:31:36.275Z,65003.45
2023-05-22T11:32:40.318Z,65001.41
2023-05-22T11:33:45.202Z,64989.58
2023-05-22T11:34:47.810Z,64991.81
2023-05-22T11:35:52.685Z,64986.25
2023-05-22T11:37:01.025Z,65002.35
2023-05-22T11:38:04.493Z,65029.51
2023-05-22T11:39:06.400Z,65056.17
2023-05-22T11:40:10.010Z,65054.59
2023-05-22T11:41:12.118Z,65050.06
2023-05-22T11:42:14.015Z,65059.03
2023-05-22T11:43:19.649Z,65066.24
2023-05-22T11:44:21.793Z,65072.25
2023-05-22T11:45:23.913Z,65055.80
2023-05-22T11:46:27.026Z,65081.70
2023-05-22T11:47:29.335Z,65071.71
2023-05-22T11:48:31.699Z,65065.05
2023-05-22T11:49:34.007Z,65019.72
2023-05-22T11:50:42.321Z,65040.07
2023-05-22T11:51:40.251Z,65056.17
2023-05-22T11:52:42.847Z,65066.61
2023-05-22T11:53:45.831Z,65055.70
2023-05-22T11:54:48.039Z,65069.49
2023-05-22T11:55:49.958Z,65066.61
2023-05-22T11:56:52.231Z,65065.59
2023-05-22T11:57:55.896Z,65058.48
2023-05-22T11:58:57.815Z,65062.83
2023-05-22T12:00:00.841Z,65066.71
2023-05-22T12:01:04.049Z,65071.06
2023-05-22T12:02:06.948Z,65067.26
2023-05-22T12:03:08.894Z,65079.46
2023-05-22T12:04:11.118Z,65075.59
2023-05-22T12:05:13.236Z,65066.71
2023-05-22T12:06:17.718Z,65085.66
2023-05-22T12:07:20.915Z,65063.48
2023-05-22T12:08:24.661Z,65090.57
2023-05-22T12:09:27.523Z,65045.26
2023-05-22T12:10:30.732Z,65069.57
2023-05-22T12:11:35.839Z,65051.27
2023-05-22T12:12:37.785Z,65020.19
2023-05-22T12:13:39.803Z,65024.54
2023-05-22T12:14:44.568Z,65052.94
2023-05-22T12:15:46.488Z,65019.62
2023-05-22T12:16:51.232Z,65033.41
2023-05-22T12:17:56.758Z,65014.62
2023-05-22T12:18:59.216Z,65019.54
2023-05-22T12:20:01.230Z,64979.80
2023-05-22T12:21:05.361Z,65027.87
2023-05-22T12:22:08.902Z,65047.75
2023-05-22T12:23:12.427Z,65057.27
2023-05-22T12:24:14.358Z,65060.60
2023-05-22T12:25:16.547Z,65055.16
2023-05-22T12:26:19.008Z,65035.15
2023-05-22T12:27:21.064Z,65029.06
2023-05-22T12:28:23.207Z,65043.40
2023-05-22T12:29:25.258Z,65047.95
2023-05-22T12:30:27.547Z,65050.06